createdAt,value
2018-04-02T00:02:27.373Z,4.20
2018-04-02T00:04:54.851Z,4.20
2018-04-02T00:07:22.324Z,4.20
2018-04-02T00:09:49.799Z,4.20
2018-04-02T00:12:17.270Z,4.10
2018-04-02T00:14:44.749Z,4.10
2018-04-02T00:17:12.218Z,4.00
2018-04-02T00:19:39.770Z,4.20
2018-04-02T00:22:07.240Z,4.10
2018-04-02T00:24:34.715Z,4.10
2018-04-02T00:27:02.192Z,4.40
2018-04-02T00:29:29.681Z,4.20
2018-04-02T00:31:57.172Z,4.30
2018-04-02T00:34:24.636Z,4.20
2018-04-02T00:36:52.099Z,4.20
2018-04-02T00:39:19.575Z,4.30
2018-04-02T00:41:47.044Z,4.40
2018-04-02T00:44:14.538Z,4.20
2018-04-02T00:46:42.773Z,4.50
2018-04-02T00:49:10.267Z,4.50
2018-04-02T00:51:38.499Z,4.40
2018-04-02T00:54:05.971Z,4.30
2018-04-02T00:56:34.187Z,4.50
2018-04-02T00:59:02.435Z,4.30
2018-04-02T01:01:29.909Z,4.50
2018-04-02T01:03:57.411Z,4.30
2018-04-02T01:06:24.900Z,4.60
2018-04-02T01:08:52.377Z,4.40
2018-04-02T01:11:19.850Z,4.30
2018-04-02T01:13:48.086Z,4.40
2018-04-02T01:16:15.552Z,4.60
2018-04-02T01:18:43.032Z,4.30
2018-04-02T01:21:10.499Z,4.50
2018-04-02T01:23:38.730Z,4.30
2018-04-02T01:26:06.217Z,4.50
2018-04-02T01:28:33.687Z,4.20
2018-04-02T01:31:01.930Z,4.10
2018-04-02T01:33:29.405Z,4.30
2018-04-02T01:35:56.883Z,4.10
2018-04-02T01:38:25.125Z,4.00
2018-04-02T01:40:52.598Z,4.10
2018-04-02T01:43:20.088Z,4.10
2018-04-02T01:45:48.322Z,4.10
2018-04-02T01:48:15.794Z,4.10
2018-04-02T01:50:43.275Z,4.10
2018-04-02T01:53:11.507Z,4.00
2018-04-02T01:55:38.995Z,3.90
2018-04-02T01:58:06.459Z,3.70
2018-04-02T02:00:34.720Z,3.60
2018-04-02T02:03:02.813Z,3.50
2018-04-02T02:05:30.432Z,3.40
2018-04-02T02:07:57.903Z,3.60
2018-04-02T02:10:25.386Z,3.60
2018-04-02T02:12:53.628Z,3.70
2018-04-02T02:15:21.115Z,3.70
2018-04-02T02:17:49.357Z,3.10
2018-04-02T02:20:16.842Z,3.20
2018-04-02T02:22:44.321Z,3.00
2018-04-02T02:25:12.562Z,3.20
2018-04-02T02:27:40.047Z,3.00
2018-04-02T02:30:08.296Z,2.90
2018-04-02T02:32:35.807Z,3.00
2018-04-02T02:35:03.367Z,3.00
2018-04-02T02:37:30.763Z,2.70
2018-04-02T02:39:58.248Z,2.40
2018-04-02T02:42:25.717Z,2.30
2018-04-02T02:44:53.964Z,2.60
2018-04-02T02:47:21.430Z,2.30
2018-04-02T02:49:48.928Z,2.70
2018-04-02T02:52:16.715Z,2.60
2018-04-02T02:54:44.192Z,2.40
2018-04-02T02:57:11.664Z,2.70
2018-04-02T02:59:39.147Z,2.90
2018-04-02T03:02:06.609Z,2.60
2018-04-02T03:04:34.860Z,2.70
2018-04-02T03:07:02.342Z,2.70
2018-04-02T03:09:29.828Z,2.40
2018-04-02T03:11:57.307Z,2.20
2018-04-02T03:14:24.782Z,2.50
2018-04-02T03:16:52.273Z,2.40
2018-04-02T03:19:20.521Z,2.50
2018-04-02T03:21:48.017Z,2.40
2018-04-02T03:24:16.244Z,2.80
2018-04-02T03:26:43.728Z,2.90
2018-04-02T03:29:11.203Z,2.90
2018-04-02T03:31:39.448Z,2.90
2018-04-02T03:34:06.924Z,3.10
2018-04-02T03:36:34.403Z,2.60
2018-04-02T03:39:02.626Z,2.80
2018-04-02T03:41:30.112Z,2.50
2018-04-02T03:43:57.572Z,2.60
2018-04-02T03:46:25.068Z,2.80
2018-04-02T03:48:52.535Z,2.80
2018-04-02T03:51:21.128Z,2.80
2018-04-02T03:53:48.594Z,2.70
2018-04-02T03:56:16.077Z,3.00
2018-04-02T03:58:43.542Z,2.80
2018-04-02T04:01:11.026Z,3.30
2018-04-02T04:03:39.271Z,3.10
2018-04-02T04:06:06.760Z,3.40
2018-04-02T04:08:34.989Z,3.60
2018-04-02T04:11:02.463Z,3.50
2018-04-02T04:13:29.932Z,3.60
2018-04-02T04:15:57.411Z,3.60
2018-04-02T04:18:25.652Z,3.20
2018-04-02T04:20:53.190Z,3.40
2018-04-02T04:23:20.608Z,3.10
2018-04-02T04:25:48.860Z,3.30
2018-04-02T04:28:16.334Z,3.20
2018-04-02T04:30:44.575Z,3.60
2018-04-02T04:33:12.058Z,3.70
2018-04-02T04:35:39.538Z,3.60
2018-04-02T04:38:07.782Z,3.50
2018-04-02T04:40:35.246Z,3.50
2018-04-02T04:43:02.710Z,3.60
2018-04-02T04:45:30.193Z,3.50
2018-04-02T04:47:58.438Z,3.60
2018-04-02T04:50:25.910Z,3.80
2018-04-02T04:52:54.142Z,3.70
2018-04-02T04:55:21.632Z,3.90
2018-04-02T04:57:49.091Z,3.90
2018-04-02T05:00:16.566Z,3.80
2018-04-02T05:02:44.802Z,3.90
2018-04-02T05:05:12.272Z,4.20
2018-04-02T05:07:39.748Z,4.10
2018-04-02T05:10:07.206Z,4.10
2018-04-02T05:12:35.450Z,4.10
2018-04-02T05:15:02.923Z,4.20
2018-04-02T05:17:30.394Z,4.20
2018-04-02T05:19:57.869Z,4.30
2018-04-02T05:22:26.119Z,3.80
2018-04-02T05:24:53.600Z,4.00
2018-04-02T05:27:21.858Z,3.80
2018-04-02T05:29:49.328Z,3.90
2018-04-02T05:32:16.816Z,3.90
2018-04-02T05:34:44.289Z,4.00
2018-04-02T05:37:11.758Z,3.90
2018-04-02T05:39:39.252Z,3.80
2018-04-02T05:42:06.727Z,4.10
2018-04-02T05:44:34.973Z,4.20
2018-04-02T05:47:02.476Z,4.00
2018-04-02T05:49:30.711Z,4.00
2018-04-02T05:51:58.204Z,3.90
2018-04-02T05:54:26.441Z,4.00
2018-04-02T05:56:53.920Z,4.10
2018-04-02T05:59:21.382Z,4.10
2018-04-02T06:01:49.637Z,4.30
2018-04-02T06:04:17.112Z,4.20
2018-04-02T06:06:44.581Z,4.10
2018-04-02T06:09:12.820Z,4.30
2018-04-02T06:11:40.308Z,4.40
2018-04-02T06:14:07.805Z,4.40
2018-04-02T06:16:35.283Z,4.30
2018-04-02T06:19:02.742Z,4.40
2018-04-02T06:21:30.214Z,4.50
2018-04-02T06:23:57.688Z,4.60
2018-04-02T06:26:25.175Z,4.40
2018-04-02T06:28:53.406Z,4.40
2018-04-02T06:31:20.966Z,4.30
2018-04-02T06:33:49.213Z,4.60
2018-04-02T06:36:16.705Z,4.50
2018-04-02T06:38:44.183Z,4.90
2018-04-02T06:41:14.810Z,4.50
2018-04-02T06:43:42.282Z,4.70
2018-04-02T06:46:09.769Z,4.60
2018-04-02T06:48:37.557Z,4.40
2018-04-02T06:51:06.734Z,4.50
2018-04-02T06:53:34.206Z,4.60
2018-04-02T06:56:01.706Z,4.70
2018-04-02T06:58:29.169Z,4.70
2018-04-02T07:00:56.689Z,4.90
2018-04-02T07:03:24.169Z,5.00
2018-04-02T07:05:51.644Z,5.10
2018-04-02T07:08:19.112Z,5.20
2018-04-02T07:10:47.355Z,5.30
2018-04-02T07:13:14.826Z,5.20
2018-04-02T07:15:42.295Z,5.40
2018-04-02T07:18:09.810Z,5.40
2018-04-02T07:20:37.264Z,5.50
2018-04-02T07:23:04.748Z,5.50
2018-04-02T07:25:32.218Z,5.60
2018-04-02T07:27:59.697Z,5.80
2018-04-02T07:30:27.163Z,5.70
2018-04-02T07:32:55.408Z,6.00
2018-04-02T07:35:22.879Z,6.00
2018-04-02T07:37:50.637Z,6.10
2018-04-02T07:40:18.099Z,6.10
2018-04-02T07:42:45.579Z,6.10
2018-04-02T07:45:13.820Z,6.10
2018-04-02T07:47:41.296Z,6.10
2018-04-02T07:50:08.772Z,6.30
2018-04-02T07:52:37.019Z,6.60
2018-04-02T07:55:04.490Z,6.80
2018-04-02T07:57:32.008Z,6.70
2018-04-02T07:59:59.462Z,6.80
2018-04-02T08:02:26.946Z,6.60
2018-04-02T08:04:54.416Z,6.70
2018-04-02T08:07:21.890Z,6.90
2018-04-02T08:09:50.118Z,7.30
2018-04-02T08:12:17.620Z,7.30
2018-04-02T08:14:45.085Z,7.30
2018-04-02T08:17:13.336Z,7.30
2018-04-02T08:19:40.815Z,7.30
2018-04-02T08:22:08.314Z,7.40
2018-04-02T08:24:35.781Z,7.40
2018-04-02T08:27:03.259Z,7.50
2018-04-02T08:29:30.733Z,7.60
2018-04-02T08:31:58.206Z,7.70
2018-04-02T08:34:25.683Z,7.80
2018-04-02T08:36:53.935Z,7.80
2018-04-02T08:39:21.404Z,7.80
2018-04-02T08:41:48.896Z,7.70
2018-04-02T08:44:16.363Z,7.40
2018-04-02T08:46:43.880Z,7.30
2018-04-02T08:49:11.327Z,7.50
2018-04-02T08:51:38.808Z,7.50
2018-04-02T08:54:07.047Z,7.90
2018-04-02T08:56:34.557Z,7.90
2018-04-02T08:59:02.019Z,7.90
2018-04-02T09:01:29.499Z,7.90
2018-04-02T09:03:56.968Z,8.00
2018-04-02T09:06:24.434Z,8.00
2018-04-02T09:08:51.929Z,8.10
2018-04-02T09:11:20.182Z,8.00
2018-04-02T09:13:47.665Z,8.00
2018-04-02T09:16:15.894Z,8.20
2018-04-02T09:18:43.386Z,8.10
2018-04-02T09:21:10.850Z,8.10
2018-04-02T09:23:38.364Z,8.10
2018-04-02T09:26:05.835Z,8.30
2018-04-02T09:28:33.310Z,8.40
2018-04-02T09:31:00.796Z,8.70
2018-04-02T09:33:29.040Z,9.10
2018-04-02T09:35:56.512Z,9.20
2018-04-02T09:38:24.000Z,9.20
2018-04-02T09:40:51.481Z,9.40
2018-04-02T09:43:18.951Z,9.50
2018-04-02T09:45:46.423Z,9.60
2018-04-02T09:48:13.904Z,9.80
2018-04-02T09:50:41.380Z,9.80
2018-04-02T09:53:08.860Z,9.90
2018-04-02T09:55:36.322Z,10.10
2018-04-02T09:58:03.808Z,10.40
2018-04-02T10:00:37.402Z,10.50
2018-04-02T10:03:04.879Z,10.60
2018-04-02T10:05:32.351Z,10.90
2018-04-02T10:07:59.850Z,10.80
2018-04-02T10:10:27.389Z,10.80
2018-04-02T10:12:54.836Z,10.80
2018-04-02T10:15:22.314Z,10.80
2018-04-02T10:17:50.554Z,11.10
2018-04-02T10:20:18.080Z,11.10
2018-04-02T10:22:45.574Z,11.30
2018-04-02T10:25:13.072Z,11.50
2018-04-02T10:27:41.314Z,11.60
2018-04-02T10:30:08.797Z,11.60
2018-04-02T10:32:37.048Z,11.40
2018-04-02T10:35:04.510Z,11.40
2018-04-02T10:37:32.005Z,11.50
2018-04-02T10:40:00.301Z,11.80
2018-04-02T10:42:27.775Z,11.80
2018-04-02T10:44:55.242Z,11.90
2018-04-02T10:47:22.734Z,11.80
2018-04-02T10:49:50.220Z,11.70
2018-04-02T10:52:18.483Z,12.00
2018-04-02T10:54:46.721Z,12.00
2018-04-02T10:57:14.971Z,12.00
2018-04-02T10:59:42.461Z,11.90
2018-04-02T11:02:09.944Z,12.00
2018-04-02T11:04:37.411Z,12.10
2018-04-02T11:07:05.669Z,12.10
2018-04-02T11:09:33.258Z,12.10
2018-04-02T11:12:00.759Z,12.10
2018-04-02T11:14:28.241Z,12.10
2018-04-02T11:16:55.711Z,12.40
2018-04-02T11:19:23.207Z,12.50
2018-04-02T11:21:50.684Z,12.70
2018-04-02T11:24:18.165Z,12.70
2018-04-02T11:26:45.644Z,12.40
2018-04-02T11:29:13.222Z,12.40
2018-04-02T11:31:42.142Z,12.40
2018-04-02T11:34:09.632Z,12.40
2018-04-02T11:36:37.234Z,12.40
2018-04-02T11:39:06.331Z,12.40
2018-04-02T11:41:34.600Z,12.00
2018-04-02T11:44:02.078Z,12.00
2018-04-02T11:46:30.337Z,11.60
2018-04-02T11:48:57.819Z,11.60
2018-04-02T11:51:25.309Z,11.70
2018-04-02T11:53:52.789Z,11.60
2018-04-02T11:56:20.262Z,11.60
2018-04-02T11:58:47.741Z,11.50
2018-04-02T12:01:15.982Z,11.70
2018-04-02T12:03:43.456Z,11.70
2018-04-02T12:06:10.960Z,11.70
2018-04-02T12:08:38.435Z,11.80
2018-04-02T12:11:05.903Z,12.00
2018-04-02T12:13:33.374Z,12.20
2018-04-02T12:16:01.456Z,12.00
2018-04-02T12:18:29.340Z,11.90
2018-04-02T12:20:57.648Z,12.10
2018-04-02T12:23:25.075Z,12.10
2018-04-02T12:25:52.564Z,12.10
2018-04-02T12:28:20.039Z,12.00
2018-04-02T12:30:47.515Z,12.10
2018-04-02T12:33:15.008Z,12.20
2018-04-02T12:35:42.500Z,12.10
2018-04-02T12:38:09.988Z,12.20
2018-04-02T12:40:37.458Z,12.20
2018-04-02T12:43:06.017Z,12.20
2018-04-02T12:45:33.516Z,12.10
2018-04-02T12:48:01.697Z,11.90
2018-04-02T12:50:29.212Z,11.80
2018-04-02T12:52:56.708Z,11.80
2018-04-02T12:55:24.984Z,11.90
2018-04-02T12:57:52.501Z,11.90
2018-04-02T13:00:19.991Z,11.80
2018-04-02T13:02:47.491Z,11.80
2018-04-02T13:05:14.962Z,11.80
2018-04-02T13:07:42.466Z,11.90
2018-04-02T13:10:09.963Z,12.10
2018-04-02T13:12:37.460Z,12.10
2018-04-02T13:15:04.960Z,12.10
2018-04-02T13:17:33.206Z,12.00
2018-04-02T13:20:00.713Z,12.00
2018-04-02T13:22:28.966Z,12.10
2018-04-02T13:24:56.464Z,12.10
2018-04-02T13:27:24.753Z,12.20
2018-04-02T13:29:52.653Z,12.30
2018-04-02T13:32:20.171Z,12.20
2018-04-02T13:34:47.672Z,12.20
2018-04-02T13:37:15.189Z,11.80
2018-04-02T13:39:42.672Z,12.10
2018-04-02T13:42:10.165Z,12.10
2018-04-02T13:44:37.675Z,12.20
2018-04-02T13:47:05.150Z,12.30
2018-04-02T13:49:32.649Z,12.40
2018-04-02T13:52:00.126Z,12.60
2018-04-02T13:54:28.383Z,13.10
2018-04-02T13:56:55.887Z,13.10
2018-04-02T13:59:23.379Z,13.10
2018-04-02T14:01:51.637Z,13.30
2018-04-02T14:04:19.129Z,13.20
2018-04-02T14:06:46.598Z,13.30
2018-04-02T14:09:14.122Z,13.30
2018-04-02T14:11:41.603Z,13.40
2018-04-02T14:14:09.097Z,13.50
2018-04-02T14:16:36.586Z,13.50
2018-04-02T14:19:04.080Z,13.60
2018-04-02T14:21:31.634Z,13.70
2018-04-02T14:23:59.142Z,13.60
2018-04-02T14:26:26.625Z,13.50
2018-04-02T14:28:54.120Z,13.50
2018-04-02T14:31:21.603Z,13.40
2018-04-02T14:33:49.865Z,13.40
2018-04-02T14:36:17.357Z,13.40
2018-04-02T14:38:44.841Z,13.40
2018-04-02T14:41:12.333Z,13.40
2018-04-02T14:43:39.833Z,13.40
2018-04-02T14:46:07.310Z,13.30
2018-04-02T14:48:34.912Z,13.40
2018-04-02T14:51:02.392Z,13.30
2018-04-02T14:53:30.656Z,13.20
2018-04-02T14:55:58.139Z,13.20
2018-04-02T14:58:25.639Z,13.30
2018-04-02T15:00:54.740Z,13.50
2018-04-02T15:03:22.408Z,13.50
2018-04-02T15:05:50.748Z,13.10
2018-04-02T15:08:18.259Z,13.10
2018-04-02T15:10:45.739Z,13.00
2018-04-02T15:13:13.986Z,13.00
2018-04-02T15:15:41.489Z,13.00
2018-04-02T15:18:09.727Z,13.00
2018-04-02T15:20:37.312Z,13.00
2018-04-02T15:23:05.568Z,13.20
2018-04-02T15:25:33.061Z,13.20
2018-04-02T15:28:01.307Z,13.10
2018-04-02T15:30:28.793Z,13.10
2018-04-02T15:32:57.030Z,13.20
2018-04-02T15:35:24.606Z,13.20
2018-04-02T15:37:52.096Z,13.10
2018-04-02T15:40:19.582Z,13.00
2018-04-02T15:42:47.072Z,12.90
2018-04-02T15:45:14.573Z,12.90
2018-04-02T15:47:42.191Z,12.80
2018-04-02T15:50:09.688Z,12.80
2018-04-02T15:52:37.944Z,12.90
2018-04-02T15:55:05.430Z,12.90
2018-04-02T15:57:32.922Z,13.00
2018-04-02T16:00:00.411Z,13.00
2018-04-02T16:02:27.891Z,13.00
2018-04-02T16:04:56.156Z,13.00
2018-04-02T16:07:23.630Z,13.00
2018-04-02T16:09:51.877Z,13.00
2018-04-02T16:12:19.374Z,13.00
2018-04-02T16:14:47.638Z,12.90
2018-04-02T16:17:15.899Z,13.00
2018-04-02T16:19:43.382Z,13.00
2018-04-02T16:22:11.625Z,12.90
2018-04-02T16:24:39.126Z,12.90
2018-04-02T16:27:06.602Z,12.80
2018-04-02T16:29:34.092Z,12.80
2018-04-02T16:32:01.580Z,12.70
2018-04-02T16:34:29.840Z,12.70
2018-04-02T16:36:57.337Z,12.70
2018-04-02T16:39:24.852Z,12.60
2018-04-02T16:41:52.333Z,12.50
2018-04-02T16:44:19.824Z,12.40
2018-04-02T16:49:40.694Z,12.20
2018-04-02T16:52:08.167Z,12.20
2018-04-02T16:54:35.655Z,12.20
2018-04-02T16:57:03.139Z,12.20
2018-04-02T16:59:30.652Z,12.10
2018-04-02T17:01:58.900Z,12.10
2018-04-02T17:04:26.395Z,12.10
2018-04-02T17:06:54.647Z,12.10
2018-04-02T17:09:22.164Z,12.10
2018-04-02T17:11:49.667Z,12.20
2018-04-02T17:14:17.159Z,12.30
2018-04-02T17:16:44.704Z,12.20
2018-04-02T17:19:12.190Z,12.30
2018-04-02T17:21:39.682Z,12.40
2018-04-02T17:24:07.193Z,12.40
2018-04-02T17:26:35.440Z,12.30
2018-04-02T17:29:02.950Z,12.30
2018-04-02T17:31:30.474Z,12.30
2018-04-02T17:33:57.946Z,12.30
2018-04-02T17:36:26.211Z,12.20
2018-04-02T17:38:54.472Z,12.10
2018-04-02T17:41:21.977Z,12.10
2018-04-02T17:43:49.473Z,12.10
2018-04-02T17:46:17.074Z,12.00
2018-04-02T17:48:45.318Z,11.90
2018-04-02T17:51:12.814Z,11.90
2018-04-02T17:53:41.055Z,11.70
2018-04-02T17:56:08.649Z,11.70
2018-04-02T17:58:36.118Z,11.50
2018-04-02T18:01:04.366Z,11.30
2018-04-02T18:03:31.851Z,11.30
2018-04-02T18:06:00.111Z,11.20
2018-04-02T18:08:28.352Z,11.00
2018-04-02T18:10:55.850Z,11.00
2018-04-02T18:13:24.090Z,10.60
2018-04-02T18:15:51.593Z,10.60
2018-04-02T18:18:19.893Z,10.50
2018-04-02T18:20:47.378Z,10.50
2018-04-02T18:23:14.865Z,10.40
2018-04-02T18:25:42.352Z,10.40
2018-04-02T18:28:10.606Z,10.30
2018-04-02T18:30:38.111Z,10.20
2018-04-02T18:33:05.588Z,10.10
2018-04-02T18:35:33.092Z,10.20
2018-04-02T18:38:01.336Z,10.00
2018-04-02T18:40:28.836Z,10.00
2018-04-02T18:42:57.159Z,9.80
2018-04-02T18:45:24.650Z,9.80
2018-04-02T18:47:52.118Z,9.80
2018-04-02T18:50:20.381Z,9.80
2018-04-02T18:52:47.849Z,9.80
2018-04-02T18:55:16.244Z,9.90
2018-04-02T18:57:44.489Z,10.00
2018-04-02T19:00:11.988Z,10.00
2018-04-02T19:02:40.238Z,10.00
2018-04-02T19:05:07.714Z,10.00
2018-04-02T19:07:35.975Z,9.80
2018-04-02T19:10:03.511Z,9.80
2018-04-02T19:15:04.925Z,9.90
2018-04-02T19:17:32.496Z,9.90
2018-04-02T19:19:59.971Z,9.80
2018-04-02T19:22:27.506Z,9.80
2018-04-02T19:24:55.833Z,9.90
2018-04-02T19:27:24.038Z,9.80
2018-04-02T19:29:51.519Z,9.80
2018-04-02T19:32:19.770Z,9.90
2018-04-02T19:34:47.261Z,9.90
2018-04-02T19:37:14.757Z,10.10
2018-04-02T19:39:42.244Z,10.10
2018-04-02T19:42:09.756Z,10.10
2018-04-02T19:44:37.235Z,10.10
2018-04-02T19:47:04.732Z,10.30
2018-04-02T19:49:32.233Z,10.40
2018-04-02T19:51:59.755Z,10.50
2018-04-02T19:54:28.006Z,10.50
2018-04-02T19:56:55.492Z,10.50
2018-04-02T19:59:23.754Z,10.70
2018-04-02T20:01:52.028Z,10.70
2018-04-02T20:04:19.525Z,10.70
2018-04-02T20:06:47.023Z,10.80
2018-04-02T20:09:14.511Z,10.90
2018-04-02T20:11:43.171Z,10.90
2018-04-02T20:14:10.671Z,10.90
2018-04-02T20:16:38.936Z,11.00
2018-04-02T20:19:06.423Z,11.00
2018-04-02T20:21:33.918Z,10.90
2018-04-02T20:24:01.449Z,10.90
2018-04-02T20:26:28.931Z,10.80
2018-04-02T20:28:56.420Z,10.70
2018-04-02T20:31:23.927Z,10.70
2018-04-02T20:33:51.402Z,10.70
2018-04-02T20:36:18.921Z,10.70
2018-04-02T20:38:47.164Z,10.60
2018-04-02T20:41:14.655Z,10.60
2018-04-02T20:43:42.992Z,10.80
2018-04-02T20:46:10.482Z,10.80
2018-04-02T20:48:38.736Z,10.70
2018-04-02T20:51:06.216Z,10.70
2018-04-02T20:53:33.700Z,10.70
2018-04-02T20:56:01.207Z,10.70
2018-04-02T20:58:28.692Z,10.70
2018-04-02T21:00:56.171Z,10.80
2018-04-02T21:03:23.676Z,10.80
2018-04-02T21:05:51.153Z,10.90
2018-04-02T21:08:18.702Z,11.00
2018-04-02T21:10:46.909Z,11.10
2018-04-02T21:13:14.396Z,11.00
2018-04-02T21:15:41.874Z,11.10
2018-04-02T21:18:09.364Z,11.10
2018-04-02T21:20:36.859Z,11.10
2018-04-02T21:23:05.108Z,11.20
2018-04-02T21:25:32.584Z,11.20
2018-04-02T21:28:00.835Z,11.10
2018-04-02T21:30:28.308Z,11.10
2018-04-02T21:32:55.819Z,11.20
2018-04-02T21:35:23.350Z,11.30
2018-04-02T21:37:50.830Z,11.30
2018-04-02T21:40:18.298Z,11.20
2018-04-02T21:42:45.792Z,11.30
2018-04-02T21:45:13.264Z,11.30
2018-04-02T21:47:41.520Z,11.30
2018-04-02T21:50:08.983Z,11.30
2018-04-02T21:52:36.485Z,11.30
2018-04-02T21:55:03.972Z,11.30
2018-04-02T21:57:31.454Z,11.40
2018-04-02T21:59:58.929Z,11.40
2018-04-02T22:02:26.427Z,11.40
2018-04-02T22:04:53.912Z,11.40
2018-04-02T22:07:21.404Z,11.40
2018-04-02T22:09:48.882Z,11.50
2018-04-02T22:12:17.141Z,11.40
2018-04-02T22:14:45.570Z,11.40
2018-04-02T22:17:13.083Z,11.40
2018-04-02T22:19:40.556Z,11.40
2018-04-02T22:22:08.806Z,11.50
2018-04-02T22:24:36.281Z,11.50
2018-04-02T22:27:03.764Z,11.60
2018-04-02T22:29:31.247Z,11.60
2018-04-02T22:31:58.763Z,11.60
2018-04-02T22:34:27.011Z,11.60
2018-04-02T22:36:54.492Z,11.60
2018-04-02T22:39:22.738Z,11.70
2018-04-02T22:41:50.290Z,11.60
2018-04-02T22:44:17.788Z,11.70
2018-04-02T22:46:46.029Z,11.60
2018-04-02T22:49:13.550Z,11.60
2018-04-02T22:51:41.015Z,11.70
2018-04-02T22:54:08.560Z,11.70
2018-04-02T22:56:36.042Z,11.70
2018-04-02T22:59:03.540Z,11.70
2018-04-02T23:01:31.016Z,11.70
2018-04-02T23:03:58.513Z,11.80
2018-04-02T23:06:25.992Z,11.80
2018-04-02T23:08:53.479Z,11.80
2018-04-02T23:11:20.966Z,12.00
2018-04-02T23:13:49.239Z,11.90
2018-04-02T23:16:17.501Z,11.80
2018-04-02T23:18:44.986Z,11.80
2018-04-02T23:21:12.455Z,11.90
2018-04-02T23:23:39.974Z,11.90
2018-04-02T23:26:07.446Z,11.80
2018-04-02T23:28:35.712Z,11.70
2018-04-02T23:31:03.187Z,11.60
2018-04-02T23:33:31.443Z,11.70
2018-04-02T23:35:58.908Z,11.70
2018-04-02T23:38:26.391Z,11.70
2018-04-02T23:40:53.871Z,11.60
2018-04-02T23:43:21.354Z,11.60
2018-04-02T23:45:48.827Z,11.50
2018-04-02T23:48:16.310Z,11.50
2018-04-02T23:50:44.550Z,11.40
2018-04-02T23:53:12.062Z,11.30
2018-04-02T23:55:40.299Z,11.30
2018-04-02T23:58:07.807Z,11.30
